Terminal Aerodrome Forecast
Issued by NWS Shreveport, LA

Home | Current Version | Previous Version | Text Only | Print | Product List | Glossary On
Versions: 1 2 3 4 5 6 7 8 9 10 11 12 13
027
FTUS44 KSHV 131720
TAFLFK
TAF
KLFK 131720Z 1318/1418 21010KT P6SM SCT250
     FM140000 VRB03KT P6SM SCT250
     FM141500 32003KT P6SM FEW250=

USA.gov is the U.S. government's official web portal to all federal, state and local government web resources and services.